sensor_id;sensor_type;location;lat;lon;timestamp;temperature;humidity
19292;DHT22;9779;51.756;7.450;2022-08-03T00:00:05;22.30;99.90
19292;DHT22;9779;51.756;7.450;2022-08-03T00:02:31;22.20;99.90
19292;DHT22;9779;51.756;7.450;2022-08-03T00:04:56;22.20;99.90
19292;DHT22;9779;51.756;7.450;2022-08-03T00:07:22;22.20;99.90
19292;DHT22;9779;51.756;7.450;2022-08-03T00:09:48;22.10;99.90
19292;DHT22;9779;51.756;7.450;2022-08-03T00:12:14;22.10;99.90
19292;DHT22;9779;51.756;7.450;2022-08-03T00:14:40;22.10;99.90
19292;DHT22;9779;51.756;7.450;2022-08-03T00:17:05;22.10;99.90
19292;DHT22;9779;51.756;7.450;2022-08-03T00:19:31;22.00;99.90
19292;DHT22;9779;51.756;7.450;2022-08-03T00:21:57;21.90;99.90
19292;DHT22;9779;51.756;7.450;2022-08-03T00:24:22;21.90;99.90
19292;DHT22;9779;51.756;7.450;2022-08-03T00:26:48;21.90;99.90
19292;DHT22;9779;51.756;7.450;2022-08-03T00:29:13;21.90;99.90
19292;DHT22;9779;51.756;7.450;2022-08-03T00:31:39;21.80;99.90
19292;DHT22;9779;51.756;7.450;2022-08-03T00:34:05;21.80;99.90
19292;DHT22;9779;51.756;7.450;2022-08-03T00:36:30;21.80;99.90
19292;DHT22;9779;51.756;7.450;2022-08-03T00:38:56;21.70;99.90
19292;DHT22;9779;51.756;7.450;2022-08-03T00:41:22;21.70;99.90
19292;DHT22;9779;51.756;7.450;2022-08-03T00:43:48;21.70;99.90
19292;DHT22;9779;51.756;7.450;2022-08-03T00:46:13;21.60;99.90
19292;DHT22;9779;51.756;7.450;2022-08-03T00:48:39;21.60;99.90
19292;DHT22;9779;51.756;7.450;2022-08-03T00:51:05;21.60;99.90
19292;DHT22;9779;51.756;7.450;2022-08-03T00:53:31;21.50;99.90
19292;DHT22;9779;51.756;7.450;2022-08-03T00:55:57;21.50;99.90
19292;DHT22;9779;51.756;7.450;2022-08-03T00:58:23;21.40;99.90
19292;DHT22;9779;51.756;7.450;2022-08-03T01:00:49;21.40;99.90
19292;DHT22;9779;51.756;7.450;2022-08-03T01:03:14;21.40;99.90
19292;DHT22;9779;51.756;7.450;2022-08-03T01:09:01;21.30;99.90
19292;DHT22;9779;51.756;7.450;2022-08-03T01:11:37;21.30;99.90
19292;DHT22;9779;51.756;7.450;2022-08-03T01:14:23;21.30;99.90
19292;DHT22;9779;51.756;7.450;2022-08-03T01:16:59;21.20;99.90
19292;DHT22;9779;51.756;7.450;2022-08-03T01:20:00;21.20;99.90
19292;DHT22;9779;51.756;7.450;2022-08-03T01:25:27;21.10;99.90
19292;DHT22;9779;51.756;7.450;2022-08-03T01:30:58;21.00;99.90
19292;DHT22;9779;51.756;7.450;2022-08-03T01:33:35;21.00;99.90
19292;DHT22;9779;51.756;7.450;2022-08-03T01:36:04;21.00;99.90
19292;DHT22;9779;51.756;7.450;2022-08-03T01:38:33;21.00;99.90
19292;DHT22;9779;51.756;7.450;2022-08-03T01:41:05;20.90;99.90
19292;DHT22;9779;51.756;7.450;2022-08-03T01:43:31;20.90;99.90
19292;DHT22;9779;51.756;7.450;2022-08-03T01:45:58;20.80;99.90
19292;DHT22;9779;51.756;7.450;2022-08-03T01:48:25;20.80;99.90
19292;DHT22;9779;51.756;7.450;2022-08-03T01:50:53;20.80;99.90
19292;DHT22;9779;51.756;7.450;2022-08-03T01:53:20;20.70;99.90
19292;DHT22;9779;51.756;7.450;2022-08-03T01:55:48;20.70;99.90
19292;DHT22;9779;51.756;7.450;2022-08-03T01:58:17;20.70;99.90
19292;DHT22;9779;51.756;7.450;2022-08-03T02:00:44;20.70;99.90
19292;DHT22;9779;51.756;7.450;2022-08-03T02:03:12;20.60;99.90
19292;DHT22;9779;51.756;7.450;2022-08-03T02:05:39;20.60;99.90
19292;DHT22;9779;51.756;7.450;2022-08-03T02:08:08;20.50;99.90
19292;DHT22;9779;51.756;7.450;2022-08-03T02:10:36;20.50;99.90
19292;DHT22;9779;51.756;7.450;2022-08-03T02:13:04;20.50;99.90
19292;DHT22;9779;51.756;7.450;2022-08-03T02:15:32;20.50;99.90
19292;DHT22;9779;51.756;7.450;2022-08-03T02:17:59;20.50;99.90
19292;DHT22;9779;51.756;7.450;2022-08-03T02:20:26;20.50;99.90
19292;DHT22;9779;51.756;7.450;2022-08-03T02:22:53;20.40;99.90
19292;DHT22;9779;51.756;7.450;2022-08-03T02:25:18;20.40;99.90
19292;DHT22;9779;51.756;7.450;2022-08-03T02:27:53;20.40;99.90
19292;DHT22;9779;51.756;7.450;2022-08-03T02:30:20;20.40;99.90
19292;DHT22;9779;51.756;7.450;2022-08-03T02:32:52;20.30;99.90
19292;DHT22;9779;51.756;7.450;2022-08-03T02:35:20;20.30;99.90
19292;DHT22;9779;51.756;7.450;2022-08-03T02:37:50;20.20;99.90
19292;DHT22;9779;51.756;7.450;2022-08-03T02:40:18;20.20;99.90
19292;DHT22;9779;51.756;7.450;2022-08-03T02:42:45;20.20;99.90
19292;DHT22;9779;51.756;7.450;2022-08-03T02:45:14;20.20;99.90
19292;DHT22;9779;51.756;7.450;2022-08-03T02:47:41;20.20;99.90
19292;DHT22;9779;51.756;7.450;2022-08-03T02:50:11;20.10;99.90
19292;DHT22;9779;51.756;7.450;2022-08-03T02:52:37;20.10;99.90
19292;DHT22;9779;51.756;7.450;2022-08-03T02:55:04;20.10;99.90
19292;DHT22;9779;51.756;7.450;2022-08-03T02:57:32;20.10;99.90
19292;DHT22;9779;51.756;7.450;2022-08-03T02:59:59;20.00;99.90
19292;DHT22;9779;51.756;7.450;2022-08-03T03:02:25;20.00;99.90
19292;DHT22;9779;51.756;7.450;2022-08-03T03:04:52;20.00;99.90
19292;DHT22;9779;51.756;7.450;2022-08-03T03:07:20;20.00;99.90
19292;DHT22;9779;51.756;7.450;2022-08-03T03:09:46;19.90;99.90
19292;DHT22;9779;51.756;7.450;2022-08-03T03:12:12;19.90;99.90
19292;DHT22;9779;51.756;7.450;2022-08-03T03:14:38;19.90;99.90
19292;DHT22;9779;51.756;7.450;2022-08-03T03:17:06;19.90;99.90
19292;DHT22;9779;51.756;7.450;2022-08-03T03:19:34;19.80;99.90
19292;DHT22;9779;51.756;7.450;2022-08-03T03:22:01;19.80;99.90
19292;DHT22;9779;51.756;7.450;2022-08-03T03:24:28;19.80;99.90
19292;DHT22;9779;51.756;7.450;2022-08-03T03:26:55;19.80;99.90
19292;DHT22;9779;51.756;7.450;2022-08-03T03:29:21;19.70;99.90
19292;DHT22;9779;51.756;7.450;2022-08-03T03:31:47;19.70;99.90
19292;DHT22;9779;51.756;7.450;2022-08-03T03:34:13;19.70;99.90
19292;DHT22;9779;51.756;7.450;2022-08-03T03:36:39;19.70;99.90
19292;DHT22;9779;51.756;7.450;2022-08-03T03:39:05;19.70;99.90
19292;DHT22;9779;51.756;7.450;2022-08-03T03:41:31;19.60;99.90
19292;DHT22;9779;51.756;7.450;2022-08-03T03:43:57;19.60;99.90
19292;DHT22;9779;51.756;7.450;2022-08-03T03:46:22;19.60;99.90
19292;DHT22;9779;51.756;7.450;2022-08-03T03:48:48;19.60;99.90
19292;DHT22;9779;51.756;7.450;2022-08-03T03:51:14;19.60;99.90
19292;DHT22;9779;51.756;7.450;2022-08-03T03:53:40;19.50;99.90
19292;DHT22;9779;51.756;7.450;2022-08-03T03:56:06;19.60;99.90
19292;DHT22;9779;51.756;7.450;2022-08-03T03:58:32;19.70;99.90
19292;DHT22;9779;51.756;7.450;2022-08-03T04:00:58;19.70;99.90
19292;DHT22;9779;51.756;7.450;2022-08-03T04:03:24;19.70;99.90
19292;DHT22;9779;51.756;7.450;2022-08-03T04:05:49;19.80;99.90
19292;DHT22;9779;51.756;7.450;2022-08-03T04:08:33;19.80;99.90
19292;DHT22;9779;51.756;7.450;2022-08-03T04:11:37;19.90;99.90
19292;DHT22;9779;51.756;7.450;2022-08-03T04:14:05;19.90;99.90
19292;DHT22;9779;51.756;7.450;2022-08-03T04:16:39;19.90;99.90
19292;DHT22;9779;51.756;7.450;2022-08-03T04:19:08;19.90;99.90
19292;DHT22;9779;51.756;7.450;2022-08-03T04:21:37;19.90;99.90
19292;DHT22;9779;51.756;7.450;2022-08-03T04:24:05;20.00;99.90
19292;DHT22;9779;51.756;7.450;2022-08-03T04:26:35;20.00;99.90
19292;DHT22;9779;51.756;7.450;2022-08-03T04:29:01;20.00;99.90
19292;DHT22;9779;51.756;7.450;2022-08-03T04:31:29;20.00;99.90
19292;DHT22;9779;51.756;7.450;2022-08-03T04:33:55;20.10;99.90
19292;DHT22;9779;51.756;7.450;2022-08-03T04:36:24;20.00;99.90
19292;DHT22;9779;51.756;7.450;2022-08-03T04:39:07;20.00;99.90
19292;DHT22;9779;51.756;7.450;2022-08-03T04:41:34;19.90;99.90
19292;DHT22;9779;51.756;7.450;2022-08-03T04:44:00;19.90;99.90
19292;DHT22;9779;51.756;7.450;2022-08-03T04:46:30;19.90;99.90
19292;DHT22;9779;51.756;7.450;2022-08-03T04:48:56;20.00;99.90
19292;DHT22;9779;51.756;7.450;2022-08-03T04:51:23;20.00;99.90
19292;DHT22;9779;51.756;7.450;2022-08-03T04:53:49;20.00;99.90
19292;DHT22;9779;51.756;7.450;2022-08-03T04:56:14;20.10;99.90
19292;DHT22;9779;51.756;7.450;2022-08-03T04:58:40;20.10;99.90
19292;DHT22;9779;51.756;7.450;2022-08-03T05:01:05;20.10;99.90
19292;DHT22;9779;51.756;7.450;2022-08-03T05:03:31;20.10;99.90
19292;DHT22;9779;51.756;7.450;2022-08-03T05:05:57;20.20;99.90
19292;DHT22;9779;51.756;7.450;2022-08-03T05:08:23;20.20;99.90
19292;DHT22;9779;51.756;7.450;2022-08-03T05:10:48;20.30;99.90
19292;DHT22;9779;51.756;7.450;2022-08-03T05:13:14;20.30;99.90
19292;DHT22;9779;51.756;7.450;2022-08-03T05:15:40;20.40;99.90
19292;DHT22;9779;51.756;7.450;2022-08-03T05:18:06;20.30;99.90
19292;DHT22;9779;51.756;7.450;2022-08-03T05:20:32;20.40;99.90
19292;DHT22;9779;51.756;7.450;2022-08-03T05:22:57;20.50;99.90
19292;DHT22;9779;51.756;7.450;2022-08-03T05:25:26;20.50;99.90
19292;DHT22;9779;51.756;7.450;2022-08-03T05:27:51;20.50;99.90
19292;DHT22;9779;51.756;7.450;2022-08-03T05:30:17;20.40;99.90
19292;DHT22;9779;51.756;7.450;2022-08-03T05:32:43;20.40;99.90
19292;DHT22;9779;51.756;7.450;2022-08-03T05:35:08;20.40;99.90
19292;DHT22;9779;51.756;7.450;2022-08-03T05:37:34;20.40;99.90
19292;DHT22;9779;51.756;7.450;2022-08-03T05:40:00;20.40;99.90
19292;DHT22;9779;51.756;7.450;2022-08-03T05:42:25;20.40;99.90
19292;DHT22;9779;51.756;7.450;2022-08-03T05:44:51;20.40;99.90
19292;DHT22;9779;51.756;7.450;2022-08-03T05:47:16;20.40;99.90
19292;DHT22;9779;51.756;7.450;2022-08-03T05:49:42;20.40;99.90
19292;DHT22;9779;51.756;7.450;2022-08-03T05:52:07;20.40;99.90
19292;DHT22;9779;51.756;7.450;2022-08-03T05:54:33;20.50;99.90
19292;DHT22;9779;51.756;7.450;2022-08-03T05:56:58;20.50;99.90
19292;DHT22;9779;51.756;7.450;2022-08-03T05:59:24;20.50;99.90
19292;DHT22;9779;51.756;7.450;2022-08-03T06:01:50;20.60;99.90
19292;DHT22;9779;51.756;7.450;2022-08-03T06:04:16;20.60;99.90
19292;DHT22;9779;51.756;7.450;2022-08-03T06:06:41;20.60;99.90
19292;DHT22;9779;51.756;7.450;2022-08-03T06:09:08;20.60;99.90
19292;DHT22;9779;51.756;7.450;2022-08-03T06:11:35;20.70;99.90
19292;DHT22;9779;51.756;7.450;2022-08-03T06:14:00;20.70;99.90
19292;DHT22;9779;51.756;7.450;2022-08-03T06:16:26;20.70;99.90
19292;DHT22;9779;51.756;7.450;2022-08-03T06:18:52;20.80;99.90
19292;DHT22;9779;51.756;7.450;2022-08-03T06:21:17;20.80;99.90
19292;DHT22;9779;51.756;7.450;2022-08-03T06:23:44;20.90;99.90
19292;DHT22;9779;51.756;7.450;2022-08-03T06:26:10;20.90;99.90
19292;DHT22;9779;51.756;7.450;2022-08-03T06:28:35;21.00;99.90
19292;DHT22;9779;51.756;7.450;2022-08-03T06:31:01;21.00;99.90
19292;DHT22;9779;51.756;7.450;2022-08-03T06:33:28;21.10;99.90
19292;DHT22;9779;51.756;7.450;2022-08-03T06:35:53;21.10;99.90
19292;DHT22;9779;51.756;7.450;2022-08-03T06:38:19;21.20;99.90
19292;DHT22;9779;51.756;7.450;2022-08-03T06:40:44;21.20;99.90
19292;DHT22;9779;51.756;7.450;2022-08-03T06:43:10;21.30;99.90
19292;DHT22;9779;51.756;7.450;2022-08-03T06:45:36;21.30;99.90
19292;DHT22;9779;51.756;7.450;2022-08-03T06:48:10;21.40;99.90
19292;DHT22;9779;51.756;7.450;2022-08-03T06:50:37;21.40;99.90
19292;DHT22;9779;51.756;7.450;2022-08-03T06:53:03;21.50;99.90
19292;DHT22;9779;51.756;7.450;2022-08-03T06:55:30;21.60;99.90
19292;DHT22;9779;51.756;7.450;2022-08-03T06:57:57;21.60;99.90
19292;DHT22;9779;51.756;7.450;2022-08-03T07:00:24;21.60;99.90
19292;DHT22;9779;51.756;7.450;2022-08-03T07:02:50;21.70;99.90
19292;DHT22;9779;51.756;7.450;2022-08-03T07:05:16;21.80;99.90
19292;DHT22;9779;51.756;7.450;2022-08-03T07:07:42;21.80;99.90
19292;DHT22;9779;51.756;7.450;2022-08-03T07:10:09;21.90;99.90
19292;DHT22;9779;51.756;7.450;2022-08-03T07:12:36;21.90;99.90
19292;DHT22;9779;51.756;7.450;2022-08-03T07:15:03;21.90;99.90
19292;DHT22;9779;51.756;7.450;2022-08-03T07:17:30;22.00;99.90
19292;DHT22;9779;51.756;7.450;2022-08-03T07:19:56;22.10;99.90
19292;DHT22;9779;51.756;7.450;2022-08-03T07:22:22;22.20;99.90
19292;DHT22;9779;51.756;7.450;2022-08-03T07:24:47;22.30;99.90
19292;DHT22;9779;51.756;7.450;2022-08-03T07:27:14;22.40;99.90
19292;DHT22;9779;51.756;7.450;2022-08-03T07:29:40;22.40;99.90
19292;DHT22;9779;51.756;7.450;2022-08-03T07:32:06;22.50;99.90
19292;DHT22;9779;51.756;7.450;2022-08-03T07:34:31;22.50;99.90
19292;DHT22;9779;51.756;7.450;2022-08-03T07:36:57;22.60;99.90
19292;DHT22;9779;51.756;7.450;2022-08-03T07:39:22;22.70;99.90
19292;DHT22;9779;51.756;7.450;2022-08-03T07:41:48;22.80;99.90
19292;DHT22;9779;51.756;7.450;2022-08-03T07:44:16;22.90;99.90
19292;DHT22;9779;51.756;7.450;2022-08-03T07:46:42;23.10;99.90
19292;DHT22;9779;51.756;7.450;2022-08-03T07:49:08;23.20;99.90
19292;DHT22;9779;51.756;7.450;2022-08-03T07:51:33;23.20;99.90
19292;DHT22;9779;51.756;7.450;2022-08-03T07:53:59;23.30;99.90
19292;DHT22;9779;51.756;7.450;2022-08-03T07:56:25;23.40;99.90
19292;DHT22;9779;51.756;7.450;2022-08-03T07:58:51;23.40;99.90
19292;DHT22;9779;51.756;7.450;2022-08-03T08:01:17;23.40;99.90
19292;DHT22;9779;51.756;7.450;2022-08-03T08:03:44;23.60;99.90
19292;DHT22;9779;51.756;7.450;2022-08-03T08:06:10;23.70;99.90
19292;DHT22;9779;51.756;7.450;2022-08-03T08:08:37;23.80;99.90
19292;DHT22;9779;51.756;7.450;2022-08-03T08:11:03;23.90;99.90
19292;DHT22;9779;51.756;7.450;2022-08-03T08:13:28;23.90;99.90
19292;DHT22;9779;51.756;7.450;2022-08-03T08:15:54;24.00;99.90
19292;DHT22;9779;51.756;7.450;2022-08-03T08:18:20;24.10;99.90
19292;DHT22;9779;51.756;7.450;2022-08-03T08:20:45;24.20;99.90
19292;DHT22;9779;51.756;7.450;2022-08-03T08:23:11;24.30;99.90
19292;DHT22;9779;51.756;7.450;2022-08-03T08:25:36;24.40;99.90
19292;DHT22;9779;51.756;7.450;2022-08-03T08:28:02;24.50;99.90
19292;DHT22;9779;51.756;7.450;2022-08-03T08:30:29;24.60;99.90
19292;DHT22;9779;51.756;7.450;2022-08-03T08:32:55;24.70;99.90
19292;DHT22;9779;51.756;7.450;2022-08-03T08:35:22;24.80;99.90
19292;DHT22;9779;51.756;7.450;2022-08-03T08:37:47;25.00;99.90
19292;DHT22;9779;51.756;7.450;2022-08-03T08:40:13;25.10;99.90
19292;DHT22;9779;51.756;7.450;2022-08-03T08:42:40;25.20;99.90
19292;DHT22;9779;51.756;7.450;2022-08-03T08:45:07;25.30;99.90
19292;DHT22;9779;51.756;7.450;2022-08-03T08:47:36;25.30;99.90
19292;DHT22;9779;51.756;7.450;2022-08-03T08:50:03;25.40;99.90
19292;DHT22;9779;51.756;7.450;2022-08-03T08:52:30;25.50;99.90
19292;DHT22;9779;51.756;7.450;2022-08-03T08:54:58;25.70;99.90
19292;DHT22;9779;51.756;7.450;2022-08-03T08:57:28;25.80;99.90
19292;DHT22;9779;51.756;7.450;2022-08-03T08:59:55;25.80;99.90
19292;DHT22;9779;51.756;7.450;2022-08-03T09:02:27;25.90;99.90
19292;DHT22;9779;51.756;7.450;2022-08-03T09:04:53;26.10;99.90
19292;DHT22;9779;51.756;7.450;2022-08-03T09:07:19;26.20;99.90
19292;DHT22;9779;51.756;7.450;2022-08-03T09:09:44;26.30;99.90
19292;DHT22;9779;51.756;7.450;2022-08-03T09:12:10;26.40;99.90
19292;DHT22;9779;51.756;7.450;2022-08-03T09:14:36;26.60;99.90
19292;DHT22;9779;51.756;7.450;2022-08-03T09:17:03;26.70;99.90
19292;DHT22;9779;51.756;7.450;2022-08-03T09:19:31;26.80;99.90
19292;DHT22;9779;51.756;7.450;2022-08-03T09:22:10;26.80;99.90
19292;DHT22;9779;51.756;7.450;2022-08-03T09:24:37;27.00;99.90
19292;DHT22;9779;51.756;7.450;2022-08-03T09:27:10;27.00;99.90
19292;DHT22;9779;51.756;7.450;2022-08-03T09:29:41;27.10;99.90
19292;DHT22;9779;51.756;7.450;2022-08-03T09:32:11;27.10;99.90
19292;DHT22;9779;51.756;7.450;2022-08-03T09:34:37;27.20;99.90
19292;DHT22;9779;51.756;7.450;2022-08-03T09:37:12;27.30;99.90
19292;DHT22;9779;51.756;7.450;2022-08-03T09:39:39;27.40;99.90
19292;DHT22;9779;51.756;7.450;2022-08-03T09:42:06;27.50;99.90
19292;DHT22;9779;51.756;7.450;2022-08-03T09:44:43;27.60;99.90
19292;DHT22;9779;51.756;7.450;2022-08-03T09:47:10;27.80;99.90
19292;DHT22;9779;51.756;7.450;2022-08-03T09:49:37;28.00;99.90
19292;DHT22;9779;51.756;7.450;2022-08-03T09:52:17;28.10;99.90
19292;DHT22;9779;51.756;7.450;2022-08-03T09:54:50;28.40;99.90
19292;DHT22;9779;51.756;7.450;2022-08-03T09:57:21;28.50;99.90
19292;DHT22;9779;51.756;7.450;2022-08-03T09:59:47;28.60;99.90
19292;DHT22;9779;51.756;7.450;2022-08-03T10:02:20;28.80;99.90
19292;DHT22;9779;51.756;7.450;2022-08-03T10:04:47;28.90;99.90
19292;DHT22;9779;51.756;7.450;2022-08-03T10:07:14;29.00;99.90
19292;DHT22;9779;51.756;7.450;2022-08-03T10:09:59;29.00;99.90
19292;DHT22;9779;51.756;7.450;2022-08-03T10:12:25;29.00;99.90
19292;DHT22;9779;51.756;7.450;2022-08-03T10:14:51;28.90;99.90
19292;DHT22;9779;51.756;7.450;2022-08-03T10:17:18;28.90;99.90
19292;DHT22;9779;51.756;7.450;2022-08-03T10:19:44;29.00;99.90
19292;DHT22;9779;51.756;7.450;2022-08-03T10:22:14;29.00;99.90
19292;DHT22;9779;51.756;7.450;2022-08-03T10:24:48;29.20;99.90
19292;DHT22;9779;51.756;7.450;2022-08-03T10:27:14;29.40;99.90
19292;DHT22;9779;51.756;7.450;2022-08-03T10:29:44;29.30;99.90
19292;DHT22;9779;51.756;7.450;2022-08-03T10:32:30;29.30;99.90
19292;DHT22;9779;51.756;7.450;2022-08-03T10:35:11;29.40;99.90
19292;DHT22;9779;51.756;7.450;2022-08-03T10:37:59;29.40;99.90
19292;DHT22;9779;51.756;7.450;2022-08-03T10:40:28;29.50;99.90
19292;DHT22;9779;51.756;7.450;2022-08-03T10:42:58;29.60;99.90
19292;DHT22;9779;51.756;7.450;2022-08-03T10:45:26;29.80;99.90
19292;DHT22;9779;51.756;7.450;2022-08-03T10:47:53;29.80;99.90
19292;DHT22;9779;51.756;7.450;2022-08-03T10:50:22;29.90;99.90
19292;DHT22;9779;51.756;7.450;2022-08-03T10:52:56;30.00;99.90
19292;DHT22;9779;51.756;7.450;2022-08-03T11:01:06;30.70;98.40
19292;DHT22;9779;51.756;7.450;2022-08-03T11:03:32;30.60;98.60
19292;DHT22;9779;51.756;7.450;2022-08-03T11:06:17;30.80;98.90
19292;DHT22;9779;51.756;7.450;2022-08-03T11:08:47;31.30;99.90
19292;DHT22;9779;51.756;7.450;2022-08-03T11:13:58;31.80;97.30
19292;DHT22;9779;51.756;7.450;2022-08-03T11:16:25;31.70;95.30
19292;DHT22;9779;51.756;7.450;2022-08-03T11:18:56;31.50;95.40
19292;DHT22;9779;51.756;7.450;2022-08-03T11:27:17;32.20;93.90
19292;DHT22;9779;51.756;7.450;2022-08-03T11:29:56;32.20;93.60
19292;DHT22;9779;51.756;7.450;2022-08-03T11:48:37;33.10;88.60
19292;DHT22;9779;51.756;7.450;2022-08-03T11:51:04;33.10;88.30
19292;DHT22;9779;51.756;7.450;2022-08-03T11:53:30;33.20;86.00
19292;DHT22;9779;51.756;7.450;2022-08-03T11:56:01;33.20;88.30
19292;DHT22;9779;51.756;7.450;2022-08-03T11:58:28;33.50;87.80
19292;DHT22;9779;51.756;7.450;2022-08-03T12:01:03;33.20;84.30
19292;DHT22;9779;51.756;7.450;2022-08-03T12:03:32;33.10;83.40
19292;DHT22;9779;51.756;7.450;2022-08-03T12:05:58;33.20;84.40
19292;DHT22;9779;51.756;7.450;2022-08-03T12:10:51;33.50;84.10
19292;DHT22;9779;51.756;7.450;2022-08-03T12:13:18;33.90;80.90
19292;DHT22;9779;51.756;7.450;2022-08-03T12:15:53;34.10;81.20
19292;DHT22;9779;51.756;7.450;2022-08-03T12:18:20;34.20;79.90
19292;DHT22;9779;51.756;7.450;2022-08-03T12:20:50;34.40;76.10
19292;DHT22;9779;51.756;7.450;2022-08-03T12:23:17;34.10;74.40
19292;DHT22;9779;51.756;7.450;2022-08-03T12:25:44;34.30;75.90
19292;DHT22;9779;51.756;7.450;2022-08-03T12:28:18;34.20;75.30
19292;DHT22;9779;51.756;7.450;2022-08-03T12:30:47;33.90;75.60
19292;DHT22;9779;51.756;7.450;2022-08-03T12:33:15;33.90;74.90
19292;DHT22;9779;51.756;7.450;2022-08-03T12:35:41;34.20;76.90
19292;DHT22;9779;51.756;7.450;2022-08-03T12:38:07;34.30;73.90
19292;DHT22;9779;51.756;7.450;2022-08-03T12:40:33;34.30;75.60
19292;DHT22;9779;51.756;7.450;2022-08-03T12:42:58;34.50;74.10
19292;DHT22;9779;51.756;7.450;2022-08-03T12:45:26;34.50;73.10
19292;DHT22;9779;51.756;7.450;2022-08-03T12:47:57;34.50;73.00
19292;DHT22;9779;51.756;7.450;2022-08-03T12:50:25;34.40;71.10
19292;DHT22;9779;51.756;7.450;2022-08-03T12:52:51;34.60;71.00
19292;DHT22;9779;51.756;7.450;2022-08-03T12:55:21;34.60;72.10
19292;DHT22;9779;51.756;7.450;2022-08-03T12:57:48;34.60;71.50
19292;DHT22;9779;51.756;7.450;2022-08-03T13:00:16;34.60;70.30
19292;DHT22;9779;51.756;7.450;2022-08-03T13:02:42;34.80;70.90
19292;DHT22;9779;51.756;7.450;2022-08-03T13:05:12;34.80;69.50
19292;DHT22;9779;51.756;7.450;2022-08-03T13:07:41;35.00;70.60
19292;DHT22;9779;51.756;7.450;2022-08-03T13:10:08;35.30;67.80
19292;DHT22;9779;51.756;7.450;2022-08-03T13:12:48;35.50;66.10
19292;DHT22;9779;51.756;7.450;2022-08-03T13:15:14;35.80;66.60
19292;DHT22;9779;51.756;7.450;2022-08-03T13:17:39;36.20;65.00
19292;DHT22;9779;51.756;7.450;2022-08-03T13:20:06;36.10;65.10
19292;DHT22;9779;51.756;7.450;2022-08-03T13:22:31;36.30;63.60
19292;DHT22;9779;51.756;7.450;2022-08-03T13:24:58;36.30;63.60
19292;DHT22;9779;51.756;7.450;2022-08-03T13:27:26;36.60;63.50
19292;DHT22;9779;51.756;7.450;2022-08-03T13:29:53;36.70;59.10
19292;DHT22;9779;51.756;7.450;2022-08-03T13:32:19;36.50;57.90
19292;DHT22;9779;51.756;7.450;2022-08-03T13:34:45;36.40;59.80
19292;DHT22;9779;51.756;7.450;2022-08-03T13:37:11;36.20;58.10
19292;DHT22;9779;51.756;7.450;2022-08-03T13:39:38;36.20;58.90
19292;DHT22;9779;51.756;7.450;2022-08-03T13:42:03;36.50;57.90
19292;DHT22;9779;51.756;7.450;2022-08-03T13:44:32;36.70;57.40
19292;DHT22;9779;51.756;7.450;2022-08-03T13:46:58;36.70;57.70
19292;DHT22;9779;51.756;7.450;2022-08-03T13:49:25;36.50;56.70
19292;DHT22;9779;51.756;7.450;2022-08-03T13:51:51;36.30;57.60
19292;DHT22;9779;51.756;7.450;2022-08-03T13:54:17;36.50;56.10
19292;DHT22;9779;51.756;7.450;2022-08-03T13:56:43;36.40;57.20
19292;DHT22;9779;51.756;7.450;2022-08-03T13:59:23;36.40;56.70
19292;DHT22;9779;51.756;7.450;2022-08-03T14:01:49;36.70;57.10
19292;DHT22;9779;51.756;7.450;2022-08-03T14:04:15;37.00;65.70
19292;DHT22;9779;51.756;7.450;2022-08-03T14:06:41;36.90;58.90
19292;DHT22;9779;51.756;7.450;2022-08-03T14:09:12;37.00;57.00
19292;DHT22;9779;51.756;7.450;2022-08-03T14:11:42;37.10;53.20
19292;DHT22;9779;51.756;7.450;2022-08-03T14:14:09;37.00;53.50
19292;DHT22;9779;51.756;7.450;2022-08-03T14:16:35;36.90;54.30
19292;DHT22;9779;51.756;7.450;2022-08-03T14:19:00;37.00;54.70
19292;DHT22;9779;51.756;7.450;2022-08-03T14:21:26;37.20;53.80
19292;DHT22;9779;51.756;7.450;2022-08-03T14:23:51;37.00;51.10
19292;DHT22;9779;51.756;7.450;2022-08-03T14:26:17;37.10;53.00
19292;DHT22;9779;51.756;7.450;2022-08-03T14:28:45;36.90;52.00
19292;DHT22;9779;51.756;7.450;2022-08-03T14:31:10;36.90;52.90
19292;DHT22;9779;51.756;7.450;2022-08-03T14:33:36;37.00;51.50
19292;DHT22;9779;51.756;7.450;2022-08-03T14:36:02;37.10;51.60
19292;DHT22;9779;51.756;7.450;2022-08-03T14:38:27;37.70;69.70
19292;DHT22;9779;51.756;7.450;2022-08-03T14:40:53;37.40;83.40
19292;DHT22;9779;51.756;7.450;2022-08-03T14:43:19;37.60;84.40
19292;DHT22;9779;51.756;7.450;2022-08-03T14:45:49;37.60;79.70
19292;DHT22;9779;51.756;7.450;2022-08-03T14:48:21;37.80;51.20
19292;DHT22;9779;51.756;7.450;2022-08-03T14:50:47;38.10;50.50
19292;DHT22;9779;51.756;7.450;2022-08-03T14:53:13;38.20;50.30
19292;DHT22;9779;51.756;7.450;2022-08-03T14:55:39;37.80;50.10
19292;DHT22;9779;51.756;7.450;2022-08-03T14:58:05;37.80;50.60
19292;DHT22;9779;51.756;7.450;2022-08-03T15:00:35;38.10;49.70
19292;DHT22;9779;51.756;7.450;2022-08-03T15:03:01;38.00;48.70
19292;DHT22;9779;51.756;7.450;2022-08-03T15:05:27;37.90;48.80
19292;DHT22;9779;51.756;7.450;2022-08-03T15:07:53;38.10;48.80
19292;DHT22;9779;51.756;7.450;2022-08-03T15:10:19;37.80;47.90
19292;DHT22;9779;51.756;7.450;2022-08-03T15:12:44;37.70;48.80
19292;DHT22;9779;51.756;7.450;2022-08-03T15:15:10;38.00;50.60
19292;DHT22;9779;51.756;7.450;2022-08-03T15:17:36;37.90;49.50
19292;DHT22;9779;51.756;7.450;2022-08-03T15:20:02;38.00;49.70
19292;DHT22;9779;51.756;7.450;2022-08-03T15:22:27;38.30;48.90
19292;DHT22;9779;51.756;7.450;2022-08-03T15:24:53;38.40;48.40
19292;DHT22;9779;51.756;7.450;2022-08-03T15:27:20;38.70;48.20
19292;DHT22;9779;51.756;7.450;2022-08-03T15:29:46;38.40;47.80
19292;DHT22;9779;51.756;7.450;2022-08-03T15:32:11;38.50;48.80
19292;DHT22;9779;51.756;7.450;2022-08-03T15:34:37;38.70;46.90
19292;DHT22;9779;51.756;7.450;2022-08-03T15:37:03;38.00;47.70
19292;DHT22;9779;51.756;7.450;2022-08-03T15:39:29;37.60;48.50
19292;DHT22;9779;51.756;7.450;2022-08-03T15:41:55;37.60;49.90
19292;DHT22;9779;51.756;7.450;2022-08-03T15:44:20;37.70;49.70
19292;DHT22;9779;51.756;7.450;2022-08-03T15:46:46;37.70;49.90
19292;DHT22;9779;51.756;7.450;2022-08-03T15:49:12;38.00;49.60
19292;DHT22;9779;51.756;7.450;2022-08-03T15:51:38;38.30;49.10
19292;DHT22;9779;51.756;7.450;2022-08-03T15:54:05;38.30;48.60
19292;DHT22;9779;51.756;7.450;2022-08-03T15:56:31;38.10;47.30
19292;DHT22;9779;51.756;7.450;2022-08-03T15:58:57;38.40;48.40
19292;DHT22;9779;51.756;7.450;2022-08-03T16:01:24;38.50;47.40
19292;DHT22;9779;51.756;7.450;2022-08-03T16:03:50;38.70;47.60
19292;DHT22;9779;51.756;7.450;2022-08-03T16:06:16;38.80;48.00
19292;DHT22;9779;51.756;7.450;2022-08-03T16:08:42;38.80;47.20
19292;DHT22;9779;51.756;7.450;2022-08-03T16:11:07;38.90;46.10
19292;DHT22;9779;51.756;7.450;2022-08-03T16:13:33;38.40;45.80
19292;DHT22;9779;51.756;7.450;2022-08-03T16:15:58;38.20;46.40
19292;DHT22;9779;51.756;7.450;2022-08-03T16:18:24;37.80;45.60
19292;DHT22;9779;51.756;7.450;2022-08-03T16:20:50;37.50;46.80
19292;DHT22;9779;51.756;7.450;2022-08-03T16:23:16;37.40;48.20
19292;DHT22;9779;51.756;7.450;2022-08-03T16:25:45;37.40;47.80
19292;DHT22;9779;51.756;7.450;2022-08-03T16:28:11;37.50;49.10